Archie, Missouri
Current Conditions -  °F | °C
As of 9:53 PM on Wednesday 26 Nov 2014 (Local Time) from KOJC Reporting Station
Overcast Overcast  
Wind Chill: 17°   Ceiling: 1800
Heat Index: 29°   Visibility: 9mi
Dew Point: 22°   Wind: 17mph
Humidity: 75%   Direction: 340°NNW
Pressure: 30.34"   Gusts: 26mph
Location:  38.48°N, 94.35°W
Report Text: KOJC 270353Z AUTO 34015G23KT 9SM OVC018 M02/M06 A3034 RMK AO2 SLP283 T10171056
Loading
Personal Weather Stations






























Interactive Weather Map New forecast layout! Learn more

10-Day Weather Forecast

Advertisements
Track Severe Weather on mobile